createdAt,value
2022-11-17T00:00:08.275Z,16.40
2022-11-17T00:02:34.778Z,16.30
2022-11-17T00:05:01.270Z,16.40
2022-11-17T00:07:27.751Z,16.30
2022-11-17T00:09:54.272Z,16.40
2022-11-17T00:12:22.884Z,16.40
2022-11-17T00:14:49.634Z,16.30
2022-11-17T00:17:16.094Z,16.30
2022-11-17T00:19:42.577Z,16.30
2022-11-17T00:22:09.053Z,16.30
2022-11-17T00:24:35.608Z,16.30
2022-11-17T00:27:08.268Z,16.20
2022-11-17T00:29:39.043Z,16.30
2022-11-17T00:32:05.851Z,16.30
2022-11-17T00:34:32.327Z,16.30
2022-11-17T00:36:58.877Z,16.20
2022-11-17T00:39:25.361Z,16.30
2022-11-17T00:41:51.827Z,16.30
2022-11-17T00:44:18.303Z,16.40
2022-11-17T00:46:44.771Z,16.20
2022-11-17T00:49:11.239Z,16.30
2022-11-17T00:51:37.714Z,16.40
2022-11-17T00:54:04.167Z,16.30
2022-11-17T00:56:30.624Z,16.40
2022-11-17T00:59:00.139Z,16.30
2022-11-17T01:01:26.624Z,16.30
2022-11-17T01:03:53.129Z,16.30
2022-11-17T01:06:19.602Z,16.30
2022-11-17T01:08:52.077Z,16.40
2022-11-17T01:11:18.550Z,16.30
2022-11-17T01:13:45.011Z,16.30
2022-11-17T01:16:11.471Z,16.30
2022-11-17T01:18:37.931Z,16.30
2022-11-17T01:21:04.421Z,16.30
2022-11-17T01:23:30.877Z,16.40
2022-11-17T01:25:57.348Z,16.30
2022-11-17T01:28:23.910Z,16.40
2022-11-17T01:30:50.362Z,16.30
2022-11-17T01:33:16.811Z,16.40
2022-11-17T01:35:43.296Z,16.30
2022-11-17T01:38:09.738Z,16.40
2022-11-17T01:40:36.224Z,16.30
2022-11-17T01:43:02.702Z,16.30
2022-11-17T01:45:29.165Z,16.40
2022-11-17T01:48:08.910Z,16.30
2022-11-17T01:50:35.402Z,16.30
2022-11-17T01:53:01.902Z,16.40
2022-11-17T01:55:28.391Z,16.40
2022-11-17T01:57:54.846Z,16.40
2022-11-17T02:00:21.315Z,16.30
2022-11-17T02:02:47.817Z,16.30
2022-11-17T02:05:14.291Z,16.30
2022-11-17T02:07:40.769Z,16.30
2022-11-17T02:10:07.231Z,16.40
2022-11-17T02:12:33.695Z,16.40
2022-11-17T02:15:00.182Z,16.30
2022-11-17T02:17:26.671Z,16.30
2022-11-17T02:19:53.146Z,16.30
2022-11-17T02:22:19.638Z,16.40
2022-11-17T02:24:46.110Z,16.40
2022-11-17T02:27:12.562Z,16.40
2022-11-17T02:29:39.022Z,16.30
2022-11-17T02:32:05.511Z,16.40
2022-11-17T02:34:31.990Z,16.40
2022-11-17T02:36:58.467Z,16.40
2022-11-17T02:39:24.950Z,16.40
2022-11-17T02:41:51.395Z,16.30
2022-11-17T02:44:17.859Z,16.30
2022-11-17T02:46:44.331Z,16.30
2022-11-17T02:49:10.796Z,16.30
2022-11-17T02:51:37.284Z,16.30
2022-11-17T02:54:03.740Z,16.30
2022-11-17T02:56:30.194Z,16.30
2022-11-17T02:58:56.669Z,16.30
2022-11-17T03:01:23.182Z,16.30
2022-11-17T03:03:49.660Z,16.40
2022-11-17T03:06:16.108Z,16.30
2022-11-17T03:08:42.572Z,16.40
2022-11-17T03:11:09.057Z,16.30
2022-11-17T03:13:35.765Z,16.40
2022-11-17T03:16:02.497Z,16.30
2022-11-17T03:18:28.981Z,16.40
2022-11-17T03:20:55.465Z,16.30
2022-11-17T03:23:22.080Z,16.30
2022-11-17T03:25:48.557Z,16.30
2022-11-17T03:28:15.054Z,16.30
2022-11-17T03:30:41.547Z,16.30
2022-11-17T03:33:08.030Z,16.30
2022-11-17T03:35:34.505Z,16.20
2022-11-17T03:38:00.975Z,16.30
2022-11-17T03:40:27.439Z,16.30
2022-11-17T03:42:56.776Z,16.30
2022-11-17T03:45:23.288Z,16.30
2022-11-17T03:47:49.733Z,16.30
2022-11-17T03:50:16.216Z,16.20
2022-11-17T03:52:42.697Z,16.30
2022-11-17T03:55:09.179Z,16.30
2022-11-17T03:57:35.668Z,16.30
2022-11-17T04:00:02.153Z,16.30
2022-11-17T04:02:28.617Z,16.30
2022-11-17T04:04:55.063Z,16.20
2022-11-17T04:07:21.618Z,16.30
2022-11-17T04:09:48.143Z,16.30
2022-11-17T04:12:14.680Z,16.40
2022-11-17T04:14:41.156Z,16.40
2022-11-17T04:17:07.759Z,16.40
2022-11-17T04:19:34.233Z,16.40
2022-11-17T04:22:00.727Z,16.30
2022-11-17T04:24:27.207Z,16.40
2022-11-17T04:26:53.659Z,16.30
2022-11-17T04:29:20.104Z,16.30
2022-11-17T04:31:46.577Z,16.40
2022-11-17T04:34:13.049Z,16.30
2022-11-17T04:36:39.517Z,16.30
2022-11-17T04:39:05.980Z,16.30
2022-11-17T04:41:32.436Z,16.30
2022-11-17T04:43:58.910Z,16.40
2022-11-17T04:46:25.370Z,16.30
2022-11-17T04:48:51.908Z,16.40
2022-11-17T04:51:18.370Z,16.40
2022-11-17T04:53:44.868Z,16.30
2022-11-17T04:56:11.326Z,16.20
2022-11-17T04:58:37.787Z,16.30
2022-11-17T05:01:04.390Z,16.30
2022-11-17T05:03:30.866Z,16.30
2022-11-17T05:06:00.183Z,16.30
2022-11-17T05:08:26.677Z,16.30
2022-11-17T05:10:53.203Z,16.30
2022-11-17T05:13:19.693Z,16.30
2022-11-17T05:15:46.159Z,16.30
2022-11-17T05:18:12.770Z,16.30
2022-11-17T05:20:39.327Z,16.30
2022-11-17T05:23:07.063Z,16.40
2022-11-17T05:25:33.678Z,16.30
2022-11-17T05:28:00.167Z,16.30
2022-11-17T05:30:26.645Z,16.30
2022-11-17T05:32:53.120Z,16.30
2022-11-17T05:35:19.613Z,16.40
2022-11-17T05:37:48.194Z,16.20
2022-11-17T05:40:14.679Z,16.30
2022-11-17T05:42:41.149Z,16.20
2022-11-17T05:45:07.613Z,16.30
2022-11-17T05:47:34.115Z,16.30
2022-11-17T05:50:00.596Z,16.30
2022-11-17T05:52:27.061Z,16.30
2022-11-17T05:54:53.559Z,16.30
2022-11-17T05:57:20.037Z,16.30
2022-11-17T05:59:46.503Z,16.30
2022-11-17T06:02:12.971Z,16.30
2022-11-17T06:04:39.519Z,16.30
2022-11-17T06:07:06.107Z,16.30
2022-11-17T06:09:32.598Z,16.30
2022-11-17T06:12:05.310Z,16.30
2022-11-17T06:14:32.521Z,16.30
2022-11-17T06:16:58.969Z,16.30
2022-11-17T06:19:25.472Z,16.30
2022-11-17T06:22:11.115Z,16.30
2022-11-17T06:24:38.373Z,16.30
2022-11-17T06:27:07.606Z,16.30
2022-11-17T06:29:36.094Z,16.20
2022-11-17T06:32:04.716Z,16.30
2022-11-17T06:34:31.177Z,16.30
2022-11-17T06:36:57.668Z,16.30
2022-11-17T06:39:24.135Z,16.30
2022-11-17T06:41:50.589Z,16.20
2022-11-17T06:44:17.235Z,16.30
2022-11-17T06:46:48.709Z,16.40
2022-11-17T06:49:15.576Z,16.30
2022-11-17T06:51:45.159Z,16.40
2022-11-17T06:54:12.135Z,16.30
2022-11-17T06:56:38.681Z,16.30
2022-11-17T06:59:05.273Z,16.30
2022-11-17T07:01:31.728Z,16.20
2022-11-17T07:03:58.239Z,16.30
2022-11-17T07:06:24.834Z,16.30
2022-11-17T07:08:51.291Z,16.30
2022-11-17T07:11:17.858Z,16.20
2022-11-17T07:13:44.329Z,16.30
2022-11-17T07:16:21.819Z,16.30
2022-11-17T07:18:50.413Z,16.30
2022-11-17T07:21:16.904Z,16.30
2022-11-17T07:23:43.425Z,16.20
2022-11-17T07:26:09.897Z,16.30
2022-11-17T07:28:36.594Z,16.30
2022-11-17T07:31:03.409Z,16.30
2022-11-17T07:33:30.332Z,16.30
2022-11-17T07:35:56.803Z,16.30
2022-11-17T07:38:23.292Z,16.30
2022-11-17T07:40:49.750Z,16.30
2022-11-17T07:43:16.272Z,16.30
2022-11-17T07:45:42.762Z,16.30
2022-11-17T07:48:09.229Z,16.20
2022-11-17T07:50:35.680Z,16.30
2022-11-17T07:53:07.889Z,16.30
2022-11-17T07:55:34.598Z,16.30
2022-11-17T07:58:01.096Z,16.30
2022-11-17T08:00:27.591Z,16.30
2022-11-17T08:02:54.067Z,16.30
2022-11-17T08:05:20.581Z,16.30
2022-11-17T08:07:47.062Z,16.30
2022-11-17T08:10:13.555Z,16.30
2022-11-17T08:12:40.027Z,16.30
2022-11-17T08:15:06.501Z,16.30
2022-11-17T08:17:32.965Z,16.30
2022-11-17T08:19:59.471Z,16.30
2022-11-17T08:22:25.998Z,16.30
2022-11-17T08:24:52.487Z,16.30
2022-11-17T08:27:18.957Z,16.30
2022-11-17T08:29:45.606Z,16.20
2022-11-17T08:32:12.098Z,16.10
2022-11-17T08:34:38.616Z,16.10
2022-11-17T08:37:05.096Z,16.20
2022-11-17T08:39:37.491Z,16.10
2022-11-17T08:42:03.974Z,16.30
2022-11-17T08:44:30.433Z,16.10
2022-11-17T08:46:56.916Z,15.70
2022-11-17T08:49:23.386Z,15.60
2022-11-17T08:51:49.849Z,15.80
2022-11-17T08:54:16.331Z,15.90
2022-11-17T08:56:42.852Z,15.90
2022-11-17T08:59:09.331Z,15.60
2022-11-17T09:01:35.814Z,16.10
2022-11-17T09:04:02.303Z,16.00
2022-11-17T09:06:28.796Z,16.00
2022-11-17T09:08:55.354Z,16.00
2022-11-17T09:11:21.961Z,16.10
2022-11-17T09:13:48.426Z,16.20
2022-11-17T09:16:14.910Z,16.20
2022-11-17T09:18:41.661Z,16.20
2022-11-17T09:21:08.268Z,16.00
2022-11-17T09:23:35.188Z,15.90
2022-11-17T09:26:01.867Z,16.00
2022-11-17T09:28:28.343Z,16.10
2022-11-17T09:30:54.848Z,16.10
2022-11-17T09:33:21.420Z,16.20
2022-11-17T09:35:47.888Z,16.10
2022-11-17T09:38:14.358Z,16.20
2022-11-17T09:40:40.813Z,16.20
2022-11-17T09:43:07.287Z,16.10
2022-11-17T09:45:33.760Z,16.20
2022-11-17T09:48:18.610Z,16.20
2022-11-17T09:50:46.681Z,16.20
2022-11-17T09:53:13.146Z,16.30
2022-11-17T09:55:39.626Z,16.30
2022-11-17T09:58:06.228Z,16.20
2022-11-17T10:00:32.697Z,16.30
2022-11-17T10:02:59.173Z,16.30
2022-11-17T10:05:25.653Z,16.30
2022-11-17T10:07:52.170Z,16.20
2022-11-17T10:10:18.663Z,16.30
2022-11-17T10:12:45.150Z,16.20
2022-11-17T10:15:11.633Z,16.30
2022-11-17T10:17:38.089Z,16.30
2022-11-17T10:20:04.583Z,16.20
2022-11-17T10:22:31.036Z,16.30
2022-11-17T10:24:57.529Z,16.20
2022-11-17T10:27:24.016Z,16.20
2022-11-17T10:29:50.496Z,16.20
2022-11-17T10:32:16.986Z,16.10
2022-11-17T10:34:43.482Z,16.20
2022-11-17T10:37:09.955Z,16.10
2022-11-17T10:39:36.411Z,16.20
2022-11-17T10:42:02.883Z,16.10
2022-11-17T10:44:29.373Z,16.20
2022-11-17T10:47:01.700Z,16.10
2022-11-17T10:49:29.003Z,16.10
2022-11-17T10:51:55.529Z,16.10
2022-11-17T10:54:22.093Z,16.00
2022-11-17T10:56:48.564Z,16.00
2022-11-17T10:59:15.055Z,16.00
2022-11-17T11:01:41.593Z,15.90
2022-11-17T11:04:08.102Z,16.10
2022-11-17T11:06:34.608Z,15.90
2022-11-17T11:09:01.083Z,15.70
2022-11-17T11:11:29.859Z,16.00
2022-11-17T11:13:59.843Z,16.10
2022-11-17T11:16:26.306Z,16.10
2022-11-17T11:18:52.780Z,16.00
2022-11-17T11:21:19.267Z,15.80
2022-11-17T11:23:46.457Z,15.80
2022-11-17T11:26:12.907Z,15.80
2022-11-17T11:28:44.406Z,15.80
2022-11-17T11:31:12.804Z,15.80
2022-11-17T11:33:39.275Z,15.80
2022-11-17T11:36:05.726Z,15.90
2022-11-17T11:38:32.212Z,15.80
2022-11-17T11:40:58.661Z,15.90
2022-11-17T11:43:25.155Z,16.00
2022-11-17T11:45:51.638Z,15.90
2022-11-17T11:48:18.134Z,15.90
2022-11-17T11:50:44.591Z,16.00
2022-11-17T11:53:11.088Z,16.10
2022-11-17T11:58:18.103Z,16.10
2022-11-17T12:00:44.627Z,16.20
2022-11-17T12:03:11.110Z,16.20
2022-11-17T12:05:37.617Z,16.10
2022-11-17T12:08:10.142Z,16.10
2022-11-17T12:10:37.014Z,16.00
2022-11-17T12:13:03.480Z,16.00
2022-11-17T12:15:29.941Z,16.10
2022-11-17T12:17:56.457Z,16.00
2022-11-17T12:20:22.921Z,16.00
2022-11-17T12:22:49.403Z,15.80
2022-11-17T12:25:15.880Z,15.70
2022-11-17T12:27:42.672Z,15.90
2022-11-17T12:30:09.194Z,15.90
2022-11-17T12:32:35.661Z,15.90
2022-11-17T12:35:02.181Z,15.90
2022-11-17T12:37:28.662Z,15.90
2022-11-17T12:39:55.111Z,15.90
2022-11-17T12:42:21.631Z,15.70
2022-11-17T12:44:48.605Z,15.70
2022-11-17T12:47:15.062Z,15.70
2022-11-17T12:49:41.564Z,15.70
2022-11-17T12:52:08.029Z,15.90
2022-11-17T12:54:34.499Z,16.00
2022-11-17T12:57:00.984Z,16.00
2022-11-17T12:59:27.486Z,15.90
2022-11-17T13:01:54.574Z,16.00
2022-11-17T13:04:21.086Z,16.00
2022-11-17T13:06:49.663Z,16.00
2022-11-17T13:09:16.125Z,15.90
2022-11-17T13:11:42.599Z,15.60
2022-11-17T13:14:09.078Z,15.70
2022-11-17T13:16:35.580Z,15.70
2022-11-17T13:19:02.053Z,15.80
2022-11-17T13:21:32.520Z,15.80
2022-11-17T13:23:58.966Z,15.90
2022-11-17T13:26:25.444Z,16.00
2022-11-17T13:28:51.906Z,15.90
2022-11-17T13:31:18.367Z,15.90
2022-11-17T13:33:44.833Z,15.80
2022-11-17T13:36:11.318Z,15.90
2022-11-17T13:38:41.472Z,15.80
2022-11-17T13:41:07.937Z,15.90
2022-11-17T13:43:34.394Z,15.70
2022-11-17T13:46:00.864Z,15.80
2022-11-17T13:48:27.441Z,15.90
2022-11-17T13:53:34.263Z,16.10
2022-11-17T13:56:00.824Z,16.00
2022-11-17T13:58:27.437Z,16.10
2022-11-17T14:00:53.985Z,16.10
2022-11-17T14:03:20.446Z,16.00
2022-11-17T14:05:46.934Z,16.20
2022-11-17T14:08:13.414Z,16.20
2022-11-17T14:10:39.894Z,16.10
2022-11-17T14:13:06.344Z,16.10
2022-11-17T14:15:32.851Z,16.20
2022-11-17T14:17:59.348Z,16.20
2022-11-17T14:20:25.871Z,16.30
2022-11-17T14:22:52.528Z,16.10
2022-11-17T14:25:18.996Z,16.20
2022-11-17T14:27:49.174Z,16.10
2022-11-17T14:30:18.574Z,16.30
2022-11-17T14:32:45.044Z,16.30
2022-11-17T14:35:11.534Z,16.20
2022-11-17T14:37:38.055Z,16.20
2022-11-17T14:40:06.570Z,16.20
2022-11-17T14:42:36.060Z,16.30
2022-11-17T14:45:02.968Z,16.00
2022-11-17T14:47:29.455Z,16.20
2022-11-17T14:49:55.946Z,16.20
2022-11-17T14:52:22.583Z,16.20
2022-11-17T14:54:49.155Z,16.30
2022-11-17T14:57:17.944Z,16.40
2022-11-17T14:59:44.424Z,16.30
2022-11-17T15:02:10.876Z,16.40
2022-11-17T15:04:50.481Z,16.40
2022-11-17T15:07:17.890Z,16.30
2022-11-17T15:09:44.389Z,16.30
2022-11-17T15:12:10.872Z,16.40
2022-11-17T15:14:37.414Z,16.30
2022-11-17T15:17:03.896Z,16.30
2022-11-17T15:19:30.366Z,16.30
2022-11-17T15:21:56.836Z,16.30
2022-11-17T15:24:23.297Z,16.40
2022-11-17T15:26:49.767Z,16.30
2022-11-17T15:29:16.430Z,16.40
2022-11-17T15:31:43.189Z,16.30
2022-11-17T15:34:09.656Z,16.30
2022-11-17T15:36:36.108Z,16.40
2022-11-17T15:39:02.574Z,16.30
2022-11-17T15:41:32.794Z,16.40
2022-11-17T15:43:59.662Z,16.30
2022-11-17T15:46:28.651Z,16.30
2022-11-17T15:48:55.118Z,16.40
2022-11-17T15:51:21.759Z,16.30
2022-11-17T15:53:48.389Z,16.40
2022-11-17T15:56:14.860Z,16.30
2022-11-17T15:58:41.336Z,16.30
2022-11-17T16:01:07.837Z,16.30
2022-11-17T16:03:34.320Z,16.30
2022-11-17T16:06:00.793Z,16.30
2022-11-17T16:08:27.312Z,16.30
2022-11-17T16:10:53.783Z,16.30
2022-11-17T16:13:20.264Z,16.30
2022-11-17T16:15:46.734Z,16.30
2022-11-17T16:18:13.191Z,16.00
2022-11-17T16:20:39.709Z,16.30
2022-11-17T16:23:06.212Z,16.30
2022-11-17T16:25:32.695Z,16.30
2022-11-17T16:27:59.159Z,16.30
2022-11-17T16:30:25.624Z,16.30
2022-11-17T16:32:52.104Z,16.30
2022-11-17T16:35:23.659Z,16.40
2022-11-17T16:37:50.120Z,16.40
2022-11-17T16:40:16.599Z,16.30
2022-11-17T16:42:43.061Z,16.20
2022-11-17T16:45:09.540Z,16.30
2022-11-17T16:47:36.015Z,16.30
2022-11-17T16:50:02.494Z,16.30
2022-11-17T16:52:29.214Z,16.30
2022-11-17T16:55:01.776Z,16.30
2022-11-17T16:57:31.090Z,16.30
2022-11-17T16:59:57.560Z,16.30
2022-11-17T17:02:24.098Z,16.30
2022-11-17T17:04:50.592Z,16.30
2022-11-17T17:07:19.980Z,16.30
2022-11-17T17:09:46.504Z,16.50
2022-11-17T17:12:12.980Z,16.30
2022-11-17T17:14:39.485Z,16.30
2022-11-17T17:17:05.947Z,16.30
2022-11-17T17:19:33.677Z,16.30
2022-11-17T17:22:00.232Z,16.30
2022-11-17T17:24:26.714Z,16.30
2022-11-17T17:26:53.174Z,16.30
2022-11-17T17:29:19.791Z,16.30
2022-11-17T17:31:46.255Z,16.30
2022-11-17T17:34:12.749Z,16.30
2022-11-17T17:36:39.215Z,16.30
2022-11-17T17:39:05.660Z,16.30
2022-11-17T17:41:32.128Z,16.30
2022-11-17T17:43:58.654Z,16.30
2022-11-17T17:46:25.119Z,16.20
2022-11-17T17:48:54.341Z,16.30
2022-11-17T17:51:20.837Z,16.20
2022-11-17T17:53:47.389Z,16.20
2022-11-17T17:56:13.898Z,16.20
2022-11-17T17:58:43.426Z,16.20
2022-11-17T18:01:09.879Z,16.10
2022-11-17T18:03:36.552Z,16.20
2022-11-17T18:06:03.098Z,16.20
2022-11-17T18:08:29.661Z,16.20
2022-11-17T18:10:56.130Z,16.30
2022-11-17T18:13:22.606Z,16.30
2022-11-17T18:15:49.791Z,16.30
2022-11-17T18:18:16.250Z,16.30
2022-11-17T18:20:42.730Z,16.30
2022-11-17T18:23:09.381Z,16.30
2022-11-17T18:25:35.851Z,16.20
2022-11-17T18:28:02.327Z,16.20
2022-11-17T18:30:28.800Z,16.10
2022-11-17T18:33:00.267Z,16.20
2022-11-17T18:35:29.200Z,16.30
2022-11-17T18:37:55.733Z,16.20
2022-11-17T18:40:22.221Z,16.20
2022-11-17T18:42:48.687Z,16.20
2022-11-17T18:45:15.132Z,16.30
2022-11-17T18:47:43.981Z,16.30
2022-11-17T18:50:10.466Z,16.20
2022-11-17T18:52:37.872Z,16.20
2022-11-17T18:55:04.339Z,16.30
2022-11-17T18:57:30.876Z,16.30
2022-11-17T18:59:57.349Z,16.30
2022-11-17T19:02:23.811Z,16.30
2022-11-17T19:04:50.271Z,16.20
2022-11-17T19:07:16.736Z,16.30
2022-11-17T19:09:43.260Z,16.20
2022-11-17T19:12:09.777Z,16.20
2022-11-17T19:14:36.254Z,16.30
2022-11-17T19:17:02.719Z,16.20
2022-11-17T19:19:29.169Z,16.00
2022-11-17T19:21:55.644Z,16.20
2022-11-17T19:24:22.102Z,16.20
2022-11-17T19:26:48.583Z,16.20
2022-11-17T19:29:17.559Z,16.20
2022-11-17T19:31:44.342Z,16.30
2022-11-17T19:34:10.877Z,16.30
2022-11-17T19:36:40.190Z,16.20
2022-11-17T19:39:06.667Z,16.20
2022-11-17T19:41:33.145Z,16.30
2022-11-17T19:43:59.614Z,16.40
2022-11-17T19:46:26.192Z,16.20
2022-11-17T19:48:52.657Z,16.20
2022-11-17T19:51:19.147Z,16.30
2022-11-17T19:53:47.835Z,16.20
2022-11-17T19:56:14.363Z,16.20
2022-11-17T19:58:40.837Z,16.30
2022-11-17T20:01:07.309Z,16.20
2022-11-17T20:03:33.792Z,16.20
2022-11-17T20:06:00.243Z,16.20
2022-11-17T20:08:26.720Z,16.20
2022-11-17T20:10:53.212Z,16.20
2022-11-17T20:13:19.709Z,16.20
2022-11-17T20:15:46.188Z,16.20
2022-11-17T20:18:12.652Z,16.20
2022-11-17T20:20:39.116Z,16.20
2022-11-17T20:23:05.593Z,16.20
2022-11-17T20:25:32.051Z,16.20
2022-11-17T20:27:58.511Z,16.30
2022-11-17T20:30:24.980Z,16.30
2022-11-17T20:32:51.459Z,16.20
2022-11-17T20:35:17.939Z,16.20
2022-11-17T20:37:44.445Z,16.10
2022-11-17T20:40:11.652Z,16.20
2022-11-17T20:42:38.139Z,16.10
2022-11-17T20:45:04.602Z,16.10
2022-11-17T20:47:31.069Z,16.10
2022-11-17T20:49:57.534Z,16.10
2022-11-17T20:52:24.018Z,16.10
2022-11-17T20:54:52.562Z,16.20
2022-11-17T20:57:19.046Z,16.20
2022-11-17T20:59:46.148Z,16.10
2022-11-17T21:02:12.620Z,16.10
2022-11-17T21:04:39.085Z,16.10
2022-11-17T21:07:05.669Z,16.10
2022-11-17T21:09:32.180Z,16.10
2022-11-17T21:11:58.653Z,16.10
2022-11-17T21:14:25.130Z,16.10
2022-11-17T21:16:51.598Z,16.10
2022-11-17T21:19:18.494Z,16.10
2022-11-17T21:21:45.070Z,16.10
2022-11-17T21:24:11.545Z,16.10
2022-11-17T21:26:38.019Z,16.20
2022-11-17T21:29:06.637Z,16.20
2022-11-17T21:31:33.496Z,16.10
2022-11-17T21:33:59.967Z,16.10
2022-11-17T21:36:26.421Z,16.20
2022-11-17T21:38:52.880Z,16.10
2022-11-17T21:41:19.411Z,16.10
2022-11-17T21:43:45.879Z,16.10
2022-11-17T21:46:12.370Z,16.10
2022-11-17T21:48:39.803Z,16.10
2022-11-17T21:51:06.249Z,16.10
2022-11-17T21:53:32.739Z,16.10
2022-11-17T21:55:59.204Z,16.10
2022-11-17T21:58:25.694Z,16.10
2022-11-17T22:00:52.204Z,16.10
2022-11-17T22:03:18.741Z,16.20
2022-11-17T22:05:45.312Z,16.20
2022-11-17T22:08:11.938Z,16.20
2022-11-17T22:10:38.393Z,16.10
2022-11-17T22:13:04.875Z,16.20
2022-11-17T22:15:31.337Z,16.10
2022-11-17T22:17:57.790Z,16.10
2022-11-17T22:20:24.280Z,16.10
2022-11-17T22:22:50.755Z,16.20
2022-11-17T22:25:43.583Z,16.20
2022-11-17T22:28:03.706Z,16.20
2022-11-17T22:30:30.199Z,16.20
2022-11-17T22:32:56.669Z,16.10
2022-11-17T22:35:23.181Z,16.10
2022-11-17T22:37:51.961Z,16.10
2022-11-17T22:40:18.450Z,16.10
2022-11-17T22:42:44.916Z,16.10
2022-11-17T22:45:11.519Z,16.10
2022-11-17T22:47:38.017Z,16.10
2022-11-17T22:50:04.516Z,16.20
2022-11-17T22:52:30.991Z,16.20
2022-11-17T22:54:57.484Z,16.20
2022-11-17T22:57:23.940Z,16.20
2022-11-17T22:59:50.455Z,16.20
2022-11-17T23:02:16.931Z,16.20
2022-11-17T23:04:43.426Z,16.20
2022-11-17T23:07:10.026Z,16.10
2022-11-17T23:09:36.607Z,16.10
2022-11-17T23:12:03.084Z,16.20
2022-11-17T23:14:29.580Z,16.20
2022-11-17T23:16:56.066Z,16.10
2022-11-17T23:19:22.550Z,16.10
2022-11-17T23:21:49.002Z,16.10
2022-11-17T23:24:15.507Z,16.10
2022-11-17T23:26:41.979Z,16.10
2022-11-17T23:29:08.475Z,16.10
2022-11-17T23:31:35.031Z,16.10
2022-11-17T23:34:01.496Z,16.10
2022-11-17T23:36:27.987Z,16.20
2022-11-17T23:38:54.445Z,16.10
2022-11-17T23:41:20.935Z,16.20
2022-11-17T23:43:47.427Z,16.20
2022-11-17T23:46:13.895Z,16.10
2022-11-17T23:48:40.377Z,16.10
2022-11-17T23:51:06.851Z,16.10
2022-11-17T23:53:33.345Z,16.20
2022-11-17T23:55:59.822Z,16.20
2022-11-17T23:58:26.323Z,16.10
